My Meet Scores
Kalli Hantle, Gymtegrity - MyMeetScores.com
Top100 | Top Teams | Upcoming Meets | Completed Meets | Latest | Add Scores | Help| Support | Bookmark and Share

Kalli Hantle, Gymtegrity
Personal Bests
LevelVault BarsBeamFloorAA
39.1759.275 8.5509.05035.975
48.8758.275 8.9509.17534.500
XB9.4759.600 9.6509.47538.100
Meet Scores
Date Meet Team Session Level Division Vault Bars Beam Floor AA
2022-11-19 Level 4/5 Colorado State Gymtegrity Gymnastics 1 4 Jr B 8.875 3 8.000 14 7.875 15 8.250 15T 33.000 14
2022-11-04 2022 Xtreme Altitude Fall Classic Gymtegrity 7 4 Child 8.100 7 8.275 20 8.950 14T 9.175 18T 34.500 16
2022-10-28 Active Athletics Monster Mash 2022 Gymtegrity Gymnastics 03 4 Junior A 8.050 8 7.950 14 8.825 5 8.900 9T 33.725 9
2022-10-15 2022 CO NAWGJ Judges Cup Gymtegrity Gymnastics 6 4 Jr B 8.500 4 8.050 8 8.775 3 8.850 3 34.175 4T
2022-09-30 2022 Pink Ribbon Invitational Gymtegrity Gymnastics 6 4 Jr B 8.500 4 7.800 8 8.250 9T 8.375 5 32.925 5
2022-09-16 Airborne Fall Classic Gymtegrity 1 4 Child 8.600 1T 8.000 12 8.725 2 7.850 7T 33.175 5
2022-09-10 2022 Autumn Gold Gymtegrity Gymnastics 5 4 Jr A 7.625 4 8.025 6T 8.550 3T 8.275 4T 32.475 5
2021-11-20 Colorado Level 4 and Level 5 State Meet Gymtegrity Gymnastics 3 4 CHILD A 0.000 15 8.075 11 8.725 8 8.350 13 25.150 15
2021-11-05 Active Athletics Monster Mash 2021 Gymtegrity Gymnastics 04 4 Child 7.600 14 7.900 13 8.375 10 8.575 13T 32.450 14
2021-10-30 5280 Girls Compulsory/Xcel Gymtegrity 3 4 Junior A 7.900 48T 7.550 53 8.625 28 8.175 50 32.250 50
2021-10-22 Airborne Fall Classic Gymtegrity Gymnastics 2 4 Junior 8.325 3 7.750 9 8.350 8T 8.250 10 32.675 8T
2021-10-08 2021 Pink Ribbon Invitational Gymtegrity Gymnastics 6A 4 Jr A 6.900 16 8.250 9 8.150 15 8.300 10 31.600 13
2021-09-11 Autumn Gold Meet Gymtegrity 6 4 Jr 1 7.650 9 7.250 13 8.050 4T 8.250 5T 31.200 11
2020-12-05 Gymtegrity Gingerbread Jam Gymtegrity 1 3 All 8.900 7T 8.325 9T 8.200 7 8.675 4 34.100 4
2020-11-07 2020 Jet Gymnastics COVID Classic Gymtegrity 3 3 Child 8.700 10 8.700 7T 8.300 9 8.750 8 34.450 9
2020-03-06 2020 Flip'r Invitational Naperville Gymnastics Club 1 3 CHILD 9.175 7 9.275 6 8.550 6 8.975 8 35.975 6
2020-02-21 Kinetic Classic Naperville Gymnastics Club 05 3 Younger 8.650 82T 8.700 73 8.050 85 8.775 72T 34.175 83T
2020-02-07 SCGA Classic Naperville Gymnastics Club 1 3 child A 9.025 4 8.200 4 7.575 7 9.050 2 33.850 5
2020-01-31 Big Chill Naperville Gymnastics Club 6 3 6 & 7 8.675 3 9.000 1 8.550 3 8.850 3 35.075 3
2020-01-17 2020 Bravo Classic Naperville Gymnastics Club 5A XB Child 9.475 1 9.500 3 9.650 2 9.475 5 38.100 2
2019-12-07 Home for the Holidays 2019 Naperville Gymnastics Club 2 XB All 9.375 1 9.600 1T 9.200 1 9.125 3T 37.300 1
2019-03-01 NGCD Academy's 2019 Flip'r Invitational Naperville Gymnastics Club 5 XB Ch 6-8 8.450 1 9.175 1 8.250 2 9.100 1 34.975 1
Get your scores on
a t-shirt, pin, or hoodie